sensor_id;sensor_type;location;lat;lon;timestamp;pressure;altitude;pressure_sealevel;temperature;humidity
51603;BME280;37954;51.980;5.850;2023-11-19T00:03:59;100467.56;;;12.81;100.00
51603;BME280;37954;51.980;5.850;2023-11-19T00:08:11;100462.47;;;12.84;100.00
51603;BME280;37954;51.980;5.850;2023-11-19T00:12:23;100443.03;;;12.82;100.00
51603;BME280;37954;51.980;5.850;2023-11-19T00:16:36;100442.06;;;12.88;100.00
51603;BME280;37954;51.980;5.850;2023-11-19T00:20:47;100439.38;;;12.88;100.00
51603;BME280;37954;51.980;5.850;2023-11-19T00:24:59;100435.69;;;12.95;100.00
51603;BME280;37954;51.980;5.850;2023-11-19T00:29:11;100426.47;;;12.90;100.00
51603;BME280;37954;51.980;5.850;2023-11-19T00:33:25;100439.78;;;12.97;100.00
51603;BME280;37954;51.980;5.850;2023-11-19T00:37:36;100423.84;;;12.96;100.00
51603;BME280;37954;51.980;5.850;2023-11-19T00:41:48;100420.34;;;12.95;100.00
51603;BME280;37954;51.980;5.850;2023-11-19T00:46:00;100436.53;;;12.95;100.00
51603;BME280;37954;51.980;5.850;2023-11-19T00:50:12;100438.16;;;12.96;100.00
51603;BME280;37954;51.980;5.850;2023-11-19T00:54:25;100417.16;;;12.98;100.00
51603;BME280;37954;51.980;5.850;2023-11-19T00:58:37;100427.75;;;13.05;100.00
51603;BME280;37954;51.980;5.850;2023-11-19T01:02:49;100407.56;;;13.07;100.00
51603;BME280;37954;51.980;5.850;2023-11-19T01:07:03;100400.31;;;13.08;100.00
51603;BME280;37954;51.980;5.850;2023-11-19T01:11:22;100413.28;;;13.11;100.00
51603;BME280;37954;51.980;5.850;2023-11-19T01:15:34;100399.47;;;13.07;100.00
51603;BME280;37954;51.980;5.850;2023-11-19T01:19:46;100414.84;;;13.07;100.00
51603;BME280;37954;51.980;5.850;2023-11-19T01:23:58;100410.03;;;13.09;100.00
51603;BME280;37954;51.980;5.850;2023-11-19T01:28:11;100416.56;;;13.13;100.00
51603;BME280;37954;51.980;5.850;2023-11-19T01:32:22;100423.09;;;13.17;100.00
51603;BME280;37954;51.980;5.850;2023-11-19T01:36:37;100404.72;;;13.14;100.00
51603;BME280;37954;51.980;5.850;2023-11-19T01:40:49;100401.53;;;13.17;100.00
51603;BME280;37954;51.980;5.850;2023-11-19T01:45:01;100386.47;;;13.21;100.00
51603;BME280;37954;51.980;5.850;2023-11-19T01:49:14;100377.25;;;13.17;100.00
51603;BME280;37954;51.980;5.850;2023-11-19T01:53:27;100378.34;;;13.16;100.00
51603;BME280;37954;51.980;5.850;2023-11-19T01:57:39;100388.84;;;13.17;100.00
51603;BME280;37954;51.980;5.850;2023-11-19T02:01:54;100394.41;;;13.11;100.00
51603;BME280;37954;51.980;5.850;2023-11-19T02:06:09;100395.22;;;13.11;100.00
51603;BME280;37954;51.980;5.850;2023-11-19T02:10:23;100384.19;;;13.13;100.00
51603;BME280;37954;51.980;5.850;2023-11-19T02:14:36;100383.63;;;13.11;100.00
51603;BME280;37954;51.980;5.850;2023-11-19T02:18:48;100385.75;;;13.09;100.00
51603;BME280;37954;51.980;5.850;2023-11-19T02:23:00;100383.63;;;13.11;100.00
51603;BME280;37954;51.980;5.850;2023-11-19T02:27:21;100366.88;;;13.09;100.00
51603;BME280;37954;51.980;5.850;2023-11-19T02:31:36;100379.28;;;13.10;100.00
51603;BME280;37954;51.980;5.850;2023-11-19T02:35:48;100386.25;;;13.06;100.00
51603;BME280;37954;51.980;5.850;2023-11-19T02:39:59;100384.84;;;13.03;100.00
51603;BME280;37954;51.980;5.850;2023-11-19T02:44:21;100383.78;;;13.04;100.00
51603;BME280;37954;51.980;5.850;2023-11-19T02:48:33;100379.13;;;13.00;100.00
51603;BME280;37954;51.980;5.850;2023-11-19T02:52:46;100385.88;;;12.97;100.00
51603;BME280;37954;51.980;5.850;2023-11-19T02:56:58;100392.81;;;12.93;100.00
51603;BME280;37954;51.980;5.850;2023-11-19T03:01:13;100388.81;;;12.96;100.00
51603;BME280;37954;51.980;5.850;2023-11-19T03:05:34;100382.75;;;12.88;100.00
51603;BME280;37954;51.980;5.850;2023-11-19T03:09:46;100379.25;;;12.88;100.00
51603;BME280;37954;51.980;5.850;2023-11-19T03:13:58;100372.56;;;12.74;100.00
51603;BME280;37954;51.980;5.850;2023-11-19T03:18:09;100369.22;;;12.67;100.00
51603;BME280;37954;51.980;5.850;2023-11-19T03:22:21;100387.84;;;12.68;100.00
51603;BME280;37954;51.980;5.850;2023-11-19T03:26:33;100386.19;;;12.67;100.00
51603;BME280;37954;51.980;5.850;2023-11-19T03:30:45;100379.94;;;12.62;100.00
51603;BME280;37954;51.980;5.850;2023-11-19T03:35:05;100381.47;;;12.58;100.00
51603;BME280;37954;51.980;5.850;2023-11-19T03:39:21;100374.38;;;12.51;100.00
51603;BME280;37954;51.980;5.850;2023-11-19T03:43:36;100372.09;;;12.43;100.00
51603;BME280;37954;51.980;5.850;2023-11-19T03:47:47;100381.84;;;12.33;100.00
51603;BME280;37954;51.980;5.850;2023-11-19T03:52:01;100376.06;;;12.24;100.00
51603;BME280;37954;51.980;5.850;2023-11-19T03:56:13;100369.94;;;12.12;100.00
51603;BME280;37954;51.980;5.850;2023-11-19T04:00:25;100366.72;;;11.98;100.00
51603;BME280;37954;51.980;5.850;2023-11-19T04:04:37;100387.59;;;11.91;100.00
51603;BME280;37954;51.980;5.850;2023-11-19T04:08:50;100373.94;;;11.81;100.00
51603;BME280;37954;51.980;5.850;2023-11-19T04:13:02;100379.09;;;11.71;100.00
51603;BME280;37954;51.980;5.850;2023-11-19T04:17:14;100378.16;;;11.65;100.00
51603;BME280;37954;51.980;5.850;2023-11-19T04:21:25;100366.16;;;11.56;100.00
51603;BME280;37954;51.980;5.850;2023-11-19T04:25:38;100392.25;;;11.56;100.00
51603;BME280;37954;51.980;5.850;2023-11-19T04:29:50;100402.88;;;11.50;100.00
51603;BME280;37954;51.980;5.850;2023-11-19T04:34:02;100389.34;;;11.45;100.00
51603;BME280;37954;51.980;5.850;2023-11-19T04:38:14;100393.31;;;11.43;100.00
51603;BME280;37954;51.980;5.850;2023-11-19T04:42:26;100398.38;;;11.39;100.00
51603;BME280;37954;51.980;5.850;2023-11-19T04:46:37;100394.50;;;11.35;100.00
51603;BME280;37954;51.980;5.850;2023-11-19T04:50:49;100393.34;;;11.31;100.00
51603;BME280;37954;51.980;5.850;2023-11-19T04:55:04;100401.06;;;11.28;100.00
51603;BME280;37954;51.980;5.850;2023-11-19T04:59:16;100403.97;;;11.26;100.00
51603;BME280;37954;51.980;5.850;2023-11-19T05:03:28;100403.97;;;11.26;100.00
51603;BME280;37954;51.980;5.850;2023-11-19T05:07:40;100400.38;;;11.21;100.00
51603;BME280;37954;51.980;5.850;2023-11-19T05:11:51;100394.19;;;11.20;100.00
51603;BME280;37954;51.980;5.850;2023-11-19T05:16:03;100403.75;;;11.28;100.00
51603;BME280;37954;51.980;5.850;2023-11-19T05:20:15;100405.84;;;11.26;100.00
51603;BME280;37954;51.980;5.850;2023-11-19T05:24:28;100410.75;;;11.29;100.00
51603;BME280;37954;51.980;5.850;2023-11-19T05:28:39;100418.72;;;11.35;100.00
51603;BME280;37954;51.980;5.850;2023-11-19T05:32:51;100417.84;;;11.46;100.00
51603;BME280;37954;51.980;5.850;2023-11-19T05:37:03;100416.94;;;11.52;100.00
51603;BME280;37954;51.980;5.850;2023-11-19T05:41:17;100394.69;;;11.57;100.00
51603;BME280;37954;51.980;5.850;2023-11-19T05:45:29;100413.03;;;11.60;100.00
51603;BME280;37954;51.980;5.850;2023-11-19T05:49:40;100401.13;;;11.56;100.00
51603;BME280;37954;51.980;5.850;2023-11-19T05:53:52;100408.16;;;11.57;100.00
51603;BME280;37954;51.980;5.850;2023-11-19T05:58:04;100398.69;;;11.55;100.00
51603;BME280;37954;51.980;5.850;2023-11-19T06:02:18;100407.69;;;11.48;100.00
51603;BME280;37954;51.980;5.850;2023-11-19T06:06:29;100411.78;;;11.51;100.00
51603;BME280;37954;51.980;5.850;2023-11-19T06:10:42;100420.19;;;11.55;100.00
51603;BME280;37954;51.980;5.850;2023-11-19T06:14:54;100414.47;;;11.51;100.00
51603;BME280;37954;51.980;5.850;2023-11-19T06:19:05;100397.63;;;11.44;100.00
51603;BME280;37954;51.980;5.850;2023-11-19T06:23:17;100409.22;;;11.44;100.00
51603;BME280;37954;51.980;5.850;2023-11-19T06:27:29;100418.25;;;11.38;100.00
51603;BME280;37954;51.980;5.850;2023-11-19T06:31:41;100408.41;;;11.32;100.00
51603;BME280;37954;51.980;5.850;2023-11-19T06:35:53;100402.38;;;11.25;100.00
51603;BME280;37954;51.980;5.850;2023-11-19T06:40:07;100403.41;;;11.24;100.00
51603;BME280;37954;51.980;5.850;2023-11-19T06:44:20;100420.84;;;11.22;100.00
51603;BME280;37954;51.980;5.850;2023-11-19T06:48:32;100422.47;;;11.23;100.00
51603;BME280;37954;51.980;5.850;2023-11-19T06:52:44;100424.56;;;11.21;100.00
51603;BME280;37954;51.980;5.850;2023-11-19T06:56:56;100426.81;;;11.24;100.00
51603;BME280;37954;51.980;5.850;2023-11-19T07:01:09;100438.38;;;11.24;100.00
51603;BME280;37954;51.980;5.850;2023-11-19T07:05:20;100436.16;;;11.21;100.00
51603;BME280;37954;51.980;5.850;2023-11-19T07:09:32;100452.38;;;11.26;100.00
51603;BME280;37954;51.980;5.850;2023-11-19T07:13:45;100448.16;;;11.30;100.00
51603;BME280;37954;51.980;5.850;2023-11-19T07:17:58;100456.34;;;11.35;100.00
51603;BME280;37954;51.980;5.850;2023-11-19T07:22:13;100461.84;;;11.40;100.00
51603;BME280;37954;51.980;5.850;2023-11-19T07:26:26;100464.63;;;11.45;100.00
51603;BME280;37954;51.980;5.850;2023-11-19T07:30:38;100471.66;;;11.46;100.00
51603;BME280;37954;51.980;5.850;2023-11-19T07:34:50;100463.81;;;11.45;100.00
51603;BME280;37954;51.980;5.850;2023-11-19T07:39:03;100477.03;;;11.46;100.00
51603;BME280;37954;51.980;5.850;2023-11-19T07:43:16;100477.03;;;11.46;100.00
51603;BME280;37954;51.980;5.850;2023-11-19T07:47:28;100481.47;;;11.52;100.00
51603;BME280;37954;51.980;5.850;2023-11-19T07:51:40;100483.25;;;11.59;100.00
51603;BME280;37954;51.980;5.850;2023-11-19T07:55:53;100487.19;;;11.68;100.00
51603;BME280;37954;51.980;5.850;2023-11-19T08:00:05;100481.09;;;11.72;100.00
51603;BME280;37954;51.980;5.850;2023-11-19T08:04:24;100477.25;;;11.80;100.00
51603;BME280;37954;51.980;5.850;2023-11-19T08:08:36;100480.94;;;12.02;100.00
51603;BME280;37954;51.980;5.850;2023-11-19T08:12:49;100480.41;;;12.17;100.00
51603;BME280;37954;51.980;5.850;2023-11-19T08:17:01;100475.00;;;12.29;100.00
51603;BME280;37954;51.980;5.850;2023-11-19T08:21:13;100484.38;;;12.26;100.00
51603;BME280;37954;51.980;5.850;2023-11-19T08:25:25;100498.72;;;12.32;100.00
51603;BME280;37954;51.980;5.850;2023-11-19T08:29:36;100487.81;;;12.38;100.00
51603;BME280;37954;51.980;5.850;2023-11-19T08:33:48;100480.72;;;12.49;100.00
51603;BME280;37954;51.980;5.850;2023-11-19T08:38:00;100488.44;;;12.57;100.00
51603;BME280;37954;51.980;5.850;2023-11-19T08:42:12;100487.84;;;12.55;100.00
51603;BME280;37954;51.980;5.850;2023-11-19T08:46:24;100494.72;;;12.46;100.00
51603;BME280;37954;51.980;5.850;2023-11-19T08:50:37;100490.16;;;12.63;100.00
51603;BME280;37954;51.980;5.850;2023-11-19T08:54:49;100494.16;;;12.61;100.00
51603;BME280;37954;51.980;5.850;2023-11-19T08:59:01;100497.16;;;12.64;100.00
51603;BME280;37954;51.980;5.850;2023-11-19T09:03:13;100492.56;;;12.76;100.00
51603;BME280;37954;51.980;5.850;2023-11-19T09:07:25;100494.09;;;12.89;100.00
51603;BME280;37954;51.980;5.850;2023-11-19T09:11:36;100486.34;;;12.93;100.00
51603;BME280;37954;51.980;5.850;2023-11-19T09:15:48;100507.44;;;12.96;100.00
51603;BME280;37954;51.980;5.850;2023-11-19T09:20:00;100494.59;;;12.86;100.00
51603;BME280;37954;51.980;5.850;2023-11-19T09:24:12;100489.88;;;12.93;100.00
51603;BME280;37954;51.980;5.850;2023-11-19T09:28:27;100487.50;;;12.97;100.00
51603;BME280;37954;51.980;5.850;2023-11-19T09:37:45;100485.22;;;13.22;100.00
51603;BME280;37954;51.980;5.850;2023-11-19T09:41:57;100494.47;;;13.65;100.00
51603;BME280;37954;51.980;5.850;2023-11-19T09:46:10;100488.34;;;13.52;100.00
51603;BME280;37954;51.980;5.850;2023-11-19T09:50:23;100496.72;;;13.34;100.00
51603;BME280;37954;51.980;5.850;2023-11-19T09:54:35;100485.78;;;13.24;100.00
51603;BME280;37954;51.980;5.850;2023-11-19T09:58:47;100490.75;;;13.49;100.00
51603;BME280;37954;51.980;5.850;2023-11-19T10:02:59;100485.56;;;13.64;100.00
51603;BME280;37954;51.980;5.850;2023-11-19T10:07:11;100479.53;;;13.57;100.00
51603;BME280;37954;51.980;5.850;2023-11-19T10:11:23;100480.78;;;13.49;100.00
51603;BME280;37954;51.980;5.850;2023-11-19T10:15:38;100474.16;;;13.40;100.00
51603;BME280;37954;51.980;5.850;2023-11-19T10:19:50;100472.44;;;13.34;100.00
51603;BME280;37954;51.980;5.850;2023-11-19T10:24:02;100475.66;;;13.31;100.00
51603;BME280;37954;51.980;5.850;2023-11-19T10:28:18;100466.66;;;13.26;100.00
51603;BME280;37954;51.980;5.850;2023-11-19T10:32:29;100467.47;;;13.26;100.00
51603;BME280;37954;51.980;5.850;2023-11-19T10:36:41;100467.47;;;13.26;100.00
51603;BME280;37954;51.980;5.850;2023-11-19T10:40:54;100467.81;;;13.30;100.00
51603;BME280;37954;51.980;5.850;2023-11-19T10:45:21;100459.03;;;13.39;100.00
51603;BME280;37954;51.980;5.850;2023-11-19T10:49:34;100443.81;;;13.72;100.00
51603;BME280;37954;51.980;5.850;2023-11-19T10:53:49;100452.09;;;13.87;100.00
51603;BME280;37954;51.980;5.850;2023-11-19T10:58:05;100442.50;;;14.23;100.00
51603;BME280;37954;51.980;5.850;2023-11-19T11:02:19;100435.59;;;14.32;100.00
51603;BME280;37954;51.980;5.850;2023-11-19T11:06:33;100441.75;;;14.27;100.00
51603;BME280;37954;51.980;5.850;2023-11-19T11:10:47;100432.88;;;14.32;99.72
51603;BME280;37954;51.980;5.850;2023-11-19T11:15:06;100436.38;;;14.54;98.11
51603;BME280;37954;51.980;5.850;2023-11-19T11:19:19;100435.97;;;14.73;97.46
51603;BME280;37954;51.980;5.850;2023-11-19T11:23:56;100432.97;;;14.69;95.17
51603;BME280;37954;51.980;5.850;2023-11-19T11:28:23;100437.44;;;14.53;92.69
51603;BME280;37954;51.980;5.850;2023-11-19T11:41:21;100444.53;;;14.38;94.59
51603;BME280;37954;51.980;5.850;2023-11-19T11:45:40;100433.56;;;14.22;94.95
51603;BME280;37954;51.980;5.850;2023-11-19T11:50:06;100415.19;;;14.19;95.25
51603;BME280;37954;51.980;5.850;2023-11-19T11:58:35;100427.06;;;14.18;94.92
51603;BME280;37954;51.980;5.850;2023-11-19T12:02:48;100430.94;;;14.01;94.45
51603;BME280;37954;51.980;5.850;2023-11-19T12:07:08;100426.84;;;13.98;96.16
51603;BME280;37954;51.980;5.850;2023-11-19T12:11:23;100416.91;;;14.31;97.50
51603;BME280;37954;51.980;5.850;2023-11-19T12:20:07;100409.50;;;14.43;94.75
51603;BME280;37954;51.980;5.850;2023-11-19T12:24:21;100406.22;;;14.41;93.53
51603;BME280;37954;51.980;5.850;2023-11-19T12:28:33;100411.75;;;14.56;92.57
51603;BME280;37954;51.980;5.850;2023-11-19T12:32:45;100407.22;;;14.61;90.75
51603;BME280;37954;51.980;5.850;2023-11-19T12:36:57;100408.03;;;14.62;89.73
51603;BME280;37954;51.980;5.850;2023-11-19T12:41:09;100413.44;;;14.62;89.54
51603;BME280;37954;51.980;5.850;2023-11-19T12:45:23;100429.16;;;14.65;90.44
51603;BME280;37954;51.980;5.850;2023-11-19T12:49:36;100417.09;;;14.78;90.89
51603;BME280;37954;51.980;5.850;2023-11-19T12:53:51;100404.06;;;14.75;89.39
51603;BME280;37954;51.980;5.850;2023-11-19T12:58:06;100423.56;;;14.77;89.87
51603;BME280;37954;51.980;5.850;2023-11-19T13:02:19;100420.56;;;14.73;90.31
51603;BME280;37954;51.980;5.850;2023-11-19T13:06:31;100412.16;;;14.70;89.54
51603;BME280;37954;51.980;5.850;2023-11-19T13:10:50;100420.91;;;14.82;90.06
51603;BME280;37954;51.980;5.850;2023-11-19T13:15:02;100420.28;;;14.70;89.03
51603;BME280;37954;51.980;5.850;2023-11-19T13:19:15;100414.00;;;14.64;89.61
51603;BME280;37954;51.980;5.850;2023-11-19T13:23:27;100409.34;;;14.54;89.96
51603;BME280;37954;51.980;5.850;2023-11-19T13:27:39;100391.03;;;14.35;90.57
51603;BME280;37954;51.980;5.850;2023-11-19T13:31:52;100376.91;;;14.27;91.18
51603;BME280;37954;51.980;5.850;2023-11-19T13:36:04;100376.81;;;14.17;91.87
51603;BME280;37954;51.980;5.850;2023-11-19T13:40:22;100374.38;;;14.16;91.64
51603;BME280;37954;51.980;5.850;2023-11-19T13:44:36;100363.66;;;13.99;92.01
51603;BME280;37954;51.980;5.850;2023-11-19T13:48:48;100361.66;;;13.89;93.79
51603;BME280;37954;51.980;5.850;2023-11-19T13:53:01;100377.03;;;13.84;94.02
51603;BME280;37954;51.980;5.850;2023-11-19T13:57:13;100373.06;;;13.70;93.97
51603;BME280;37954;51.980;5.850;2023-11-19T14:01:25;100371.06;;;13.60;95.33
51603;BME280;37954;51.980;5.850;2023-11-19T14:05:46;100388.19;;;13.71;96.82
51603;BME280;37954;51.980;5.850;2023-11-19T14:09:58;100378.84;;;13.56;97.51
51603;BME280;37954;51.980;5.850;2023-11-19T14:14:10;100379.66;;;13.57;98.18
51603;BME280;37954;51.980;5.850;2023-11-19T14:18:22;100370.38;;;13.48;98.82
51603;BME280;37954;51.980;5.850;2023-11-19T14:22:34;100359.78;;;13.41;99.46
51603;BME280;37954;51.980;5.850;2023-11-19T14:26:46;100358.72;;;13.42;100.00
51603;BME280;37954;51.980;5.850;2023-11-19T14:31:03;100361.72;;;13.46;100.00
51603;BME280;37954;51.980;5.850;2023-11-19T14:35:14;100358.38;;;13.39;100.00
51603;BME280;37954;51.980;5.850;2023-11-19T14:39:26;100362.94;;;13.33;100.00
51603;BME280;37954;51.980;5.850;2023-11-19T14:43:39;100358.69;;;13.20;99.62
51603;BME280;37954;51.980;5.850;2023-11-19T14:47:51;100363.69;;;13.12;100.00
51603;BME280;37954;51.980;5.850;2023-11-19T14:52:04;100356.75;;;12.99;100.00
51603;BME280;37954;51.980;5.850;2023-11-19T14:56:19;100357.09;;;12.86;100.00
51603;BME280;37954;51.980;5.850;2023-11-19T15:00:31;100365.13;;;12.81;100.00
51603;BME280;37954;51.980;5.850;2023-11-19T15:04:44;100358.28;;;12.73;100.00
51603;BME280;37954;51.980;5.850;2023-11-19T15:08:56;100368.00;;;12.74;100.00
51603;BME280;37954;51.980;5.850;2023-11-19T15:13:08;100358.03;;;12.58;100.00
51603;BME280;37954;51.980;5.850;2023-11-19T15:17:46;100372.56;;;12.57;100.00
51603;BME280;37954;51.980;5.850;2023-11-19T15:21:57;100361.56;;;12.42;100.00
51603;BME280;37954;51.980;5.850;2023-11-19T15:26:09;100348.91;;;12.42;100.00
51603;BME280;37954;51.980;5.850;2023-11-19T15:30:22;100352.75;;;12.46;100.00
51603;BME280;37954;51.980;5.850;2023-11-19T15:34:34;100363.59;;;12.51;100.00
51603;BME280;37954;51.980;5.850;2023-11-19T15:38:48;100368.00;;;12.58;100.00
51603;BME280;37954;51.980;5.850;2023-11-19T15:43:04;100368.41;;;12.66;100.00
51603;BME280;37954;51.980;5.850;2023-11-19T15:47:18;100360.06;;;12.68;100.00
51603;BME280;37954;51.980;5.850;2023-11-19T15:51:29;100355.25;;;12.70;100.00
51603;BME280;37954;51.980;5.850;2023-11-19T15:55:41;100364.72;;;12.72;100.00
51603;BME280;37954;51.980;5.850;2023-11-19T15:59:53;100364.16;;;12.70;100.00
51603;BME280;37954;51.980;5.850;2023-11-19T16:04:05;100355.97;;;12.65;100.00
51603;BME280;37954;51.980;5.850;2023-11-19T16:08:17;100358.88;;;12.59;100.00
51603;BME280;37954;51.980;5.850;2023-11-19T16:12:28;100370.94;;;12.56;100.00
51603;BME280;37954;51.980;5.850;2023-11-19T16:16:40;100370.84;;;12.51;100.00
51603;BME280;37954;51.980;5.850;2023-11-19T16:20:54;100362.63;;;12.58;100.00
51603;BME280;37954;51.980;5.850;2023-11-19T16:25:06;100370.13;;;12.55;100.00
51603;BME280;37954;51.980;5.850;2023-11-19T16:29:18;100367.53;;;12.61;100.00
51603;BME280;37954;51.980;5.850;2023-11-19T16:33:31;100362.28;;;12.54;100.00
51603;BME280;37954;51.980;5.850;2023-11-19T16:37:46;100365.06;;;12.59;100.00
51603;BME280;37954;51.980;5.850;2023-11-19T16:41:58;100358.03;;;12.58;100.00
51603;BME280;37954;51.980;5.850;2023-11-19T16:46:10;100368.63;;;12.65;100.00
51603;BME280;37954;51.980;5.850;2023-11-19T16:50:22;100367.28;;;12.62;100.00
51603;BME280;37954;51.980;5.850;2023-11-19T16:54:33;100353.88;;;12.50;100.00
51603;BME280;37954;51.980;5.850;2023-11-19T16:58:45;100375.50;;;12.55;100.00
51603;BME280;37954;51.980;5.850;2023-11-19T17:02:57;100359.69;;;12.42;100.00
51603;BME280;37954;51.980;5.850;2023-11-19T17:07:12;100394.22;;;12.45;100.00
51603;BME280;37954;51.980;5.850;2023-11-19T17:11:24;100375.75;;;12.37;100.00
51603;BME280;37954;51.980;5.850;2023-11-19T17:15:35;100372.72;;;12.34;100.00
51603;BME280;37954;51.980;5.850;2023-11-19T17:19:48;100358.84;;;12.25;100.00
51603;BME280;37954;51.980;5.850;2023-11-19T17:24:00;100370.69;;;12.24;100.00
51603;BME280;37954;51.980;5.850;2023-11-19T17:28:12;100344.31;;;12.09;100.00
51603;BME280;37954;51.980;5.850;2023-11-19T17:32:24;100363.66;;;12.23;100.00
51603;BME280;37954;51.980;5.850;2023-11-19T17:36:36;100348.22;;;12.18;100.00
51603;BME280;37954;51.980;5.850;2023-11-19T17:40:48;100320.22;;;12.03;100.00
51603;BME280;37954;51.980;5.850;2023-11-19T17:45:00;100323.97;;;12.02;100.00
51603;BME280;37954;51.980;5.850;2023-11-19T17:49:12;100348.47;;;12.17;100.00
51603;BME280;37954;51.980;5.850;2023-11-19T17:53:23;100311.06;;;11.87;100.00
51603;BME280;37954;51.980;5.850;2023-11-19T17:57:35;100356.88;;;12.20;100.00
51603;BME280;37954;51.980;5.850;2023-11-19T18:01:47;100341.94;;;12.13;100.00
51603;BME280;37954;51.980;5.850;2023-11-19T18:05:59;100331.66;;;12.10;100.00
51603;BME280;37954;51.980;5.850;2023-11-19T18:10:11;100338.28;;;12.19;100.00
51603;BME280;37954;51.980;5.850;2023-11-19T18:14:23;100339.81;;;12.15;100.00
51603;BME280;37954;51.980;5.850;2023-11-19T18:18:43;100324.06;;;12.07;100.00
51603;BME280;37954;51.980;5.850;2023-11-19T18:22:55;100344.91;;;12.11;100.00
51603;BME280;37954;51.980;5.850;2023-11-19T18:27:07;100324.06;;;12.07;100.00
51603;BME280;37954;51.980;5.850;2023-11-19T18:31:19;100324.06;;;12.07;100.00
51603;BME280;37954;51.980;5.850;2023-11-19T18:35:30;100319.03;;;12.10;100.00
51603;BME280;37954;51.980;5.850;2023-11-19T18:39:43;100321.06;;;12.03;100.00
51603;BME280;37954;51.980;5.850;2023-11-19T18:43:54;100323.25;;;12.06;100.00
51603;BME280;37954;51.980;5.850;2023-11-19T18:48:06;100314.94;;;12.08;100.00
51603;BME280;37954;51.980;5.850;2023-11-19T18:52:43;100322.53;;;12.11;100.00
51603;BME280;37954;51.980;5.850;2023-11-19T18:56:55;100319.56;;;12.12;100.00
51603;BME280;37954;51.980;5.850;2023-11-19T19:01:08;100321.38;;;12.07;100.00
51603;BME280;37954;51.980;5.850;2023-11-19T19:05:20;100308.97;;;12.06;100.00
51603;BME280;37954;51.980;5.850;2023-11-19T19:09:32;100315.19;;;12.06;100.00
51603;BME280;37954;51.980;5.850;2023-11-19T19:13:44;100311.44;;;12.07;100.00
51603;BME280;37954;51.980;5.850;2023-11-19T19:17:56;100304.41;;;12.06;100.00
51603;BME280;37954;51.980;5.850;2023-11-19T19:22:08;100308.41;;;12.04;100.00
51603;BME280;37954;51.980;5.850;2023-11-19T19:26:20;100289.94;;;11.96;100.00
51603;BME280;37954;51.980;5.850;2023-11-19T19:30:33;100301.97;;;12.05;100.00
51603;BME280;37954;51.980;5.850;2023-11-19T19:34:44;100307.69;;;12.08;100.00
51603;BME280;37954;51.980;5.850;2023-11-19T19:38:57;100268.25;;;11.85;100.00
51603;BME280;37954;51.980;5.850;2023-11-19T19:43:08;100298.44;;;12.04;100.00
51603;BME280;37954;51.980;5.850;2023-11-19T19:47:21;100266.13;;;11.88;100.00
51603;BME280;37954;51.980;5.850;2023-11-19T19:51:32;100296.00;;;12.03;100.00
51603;BME280;37954;51.980;5.850;2023-11-19T19:55:44;100292.75;;;12.01;100.00
51603;BME280;37954;51.980;5.850;2023-11-19T19:59:56;100293.88;;;12.05;100.00
51603;BME280;37954;51.980;5.850;2023-11-19T20:04:07;100254.56;;;11.87;100.00
51603;BME280;37954;51.980;5.850;2023-11-19T20:08:19;100276.50;;;11.96;100.00
51603;BME280;37954;51.980;5.850;2023-11-19T20:12:31;100233.69;;;11.77;100.00
51603;BME280;37954;51.980;5.850;2023-11-19T20:16:43;100272.44;;;11.93;100.00
51603;BME280;37954;51.980;5.850;2023-11-19T20:20:56;100292.00;;;12.05;100.00
51603;BME280;37954;51.980;5.850;2023-11-19T20:25:08;100282.31;;;12.04;100.00
51603;BME280;37954;51.980;5.850;2023-11-19T20:29:19;100297.16;;;12.07;100.00
51603;BME280;37954;51.980;5.850;2023-11-19T20:33:31;100259.13;;;11.87;100.00
51603;BME280;37954;51.980;5.850;2023-11-19T20:37:43;100305.31;;;12.12;100.00
51603;BME280;37954;51.980;5.850;2023-11-19T20:41:55;100267.53;;;11.90;100.00
51603;BME280;37954;51.980;5.850;2023-11-19T20:46:06;100319.09;;;12.15;100.00
51603;BME280;37954;51.980;5.850;2023-11-19T20:50:18;100314.88;;;12.19;100.00
51603;BME280;37954;51.980;5.850;2023-11-19T20:54:33;100321.22;;;12.13;100.00
51603;BME280;37954;51.980;5.850;2023-11-19T20:58:48;100318.84;;;12.17;100.00
51603;BME280;37954;51.980;5.850;2023-11-19T21:03:00;100314.53;;;12.16;100.00
51603;BME280;37954;51.980;5.850;2023-11-19T21:07:11;100305.13;;;12.02;100.00
51603;BME280;37954;51.980;5.850;2023-11-19T21:11:23;100327.16;;;12.15;100.00
51603;BME280;37954;51.980;5.850;2023-11-19T21:15:35;100330.09;;;12.14;100.00
51603;BME280;37954;51.980;5.850;2023-11-19T21:20:00;100292.91;;;11.94;100.00
51603;BME280;37954;51.980;5.850;2023-11-19T21:24:12;100329.72;;;12.22;100.00
51603;BME280;37954;51.980;5.850;2023-11-19T21:28:27;100299.50;;;12.03;100.00
51603;BME280;37954;51.980;5.850;2023-11-19T21:32:39;100317.16;;;12.11;100.00
51603;BME280;37954;51.980;5.850;2023-11-19T21:36:51;100320.72;;;12.16;100.00
51603;BME280;37954;51.980;5.850;2023-11-19T21:41:09;100335.91;;;12.23;100.00
51603;BME280;37954;51.980;5.850;2023-11-19T21:45:23;100331.00;;;12.19;100.00
51603;BME280;37954;51.980;5.850;2023-11-19T21:49:37;100321.16;;;12.08;100.00
51603;BME280;37954;51.980;5.850;2023-11-19T21:53:49;100326.69;;;12.18;100.00
51603;BME280;37954;51.980;5.850;2023-11-19T21:58:01;100321.22;;;12.13;100.00
51603;BME280;37954;51.980;5.850;2023-11-19T22:02:13;100308.50;;;12.09;100.00
51603;BME280;37954;51.980;5.850;2023-11-19T22:06:25;100342.47;;;12.27;100.00
51603;BME280;37954;51.980;5.850;2023-11-19T22:10:36;100334.38;;;12.27;100.00